Time;durP1;ratioP1;P1;durP2;ratioP2;P2;SDS_P1;SDS_P2;PMS_P1;PMS_P2;Temp;Humidity;BMP_temperature;BMP_pressure;BME280_temperature;BME280_humidity;BME280_pressure;Samples;Min_cycle;Max_cycle;Signal;HPM_P1;HPM_P2
2022/03/06 00:01:51;;;;;;;;;12.25;12.00;;;;;;;;5103219;27;46457;-76
2022/03/06 00:04:16;;;;;;;;;4.25;4.25;;;;;;;;5100044;27;45486;-76
2022/03/06 00:06:41;;;;;;;;;11.75;11.00;;;;;;;;5100567;27;45597;-77
2022/03/06 00:09:07;;;;;;;;;11.75;10.75;;;;;;;;5098335;27;45350;-78
2022/03/06 00:11:32;;;;;;;;;11.25;8.00;;;;;;;;5105268;27;46257;-78
2022/03/06 00:13:57;;;;;;;;;14.00;11.25;;;;;;;;5096302;27;45396;-77
2022/03/06 00:16:22;;;;;;;;;10.50;10.50;;;;;;;;5096851;27;45369;-77
2022/03/06 00:18:47;;;;;;;;;13.50;10.50;;;;;;;;5110389;27;45328;-77
2022/03/06 00:21:13;;;;;;;;;11.00;10.50;;;;;;;;5110531;27;46342;-77
2022/03/06 00:23:38;;;;;;;;;11.50;9.75;;;;;;;;5098149;27;45420;-76
2022/03/06 00:26:04;;;;;;;;;12.50;12.00;;;;;;;;5098863;27;45313;-76
2022/03/06 00:28:29;;;;;;;;;10.00;8.25;;;;;;;;5098113;27;45494;-76
2022/03/06 00:30:54;;;;;;;;;11.25;9.50;;;;;;;;5097829;27;45451;-76
2022/03/06 00:33:20;;;;;;;;;11.00;10.00;;;;;;;;5097636;27;45446;-77
2022/03/06 00:35:45;;;;;;;;;15.25;12.00;;;;;;;;5100124;27;45500;-76
2022/03/06 00:38:10;;;;;;;;;10.50;8.25;;;;;;;;5098125;27;45239;-75
2022/03/06 00:40:36;;;;;;;;;14.00;12.75;;;;;;;;5096976;27;46853;-74
2022/03/06 00:43:02;;;;;;;;;14.00;10.75;;;;;;;;5096531;27;45490;-73
2022/03/06 00:45:27;;;;;;;;;10.50;9.00;;;;;;;;5096989;27;45266;-74
2022/03/06 00:47:52;;;;;;;;;11.25;11.25;;;;;;;;5096288;27;45347;-74
2022/03/06 00:50:17;;;;;;;;;14.25;12.50;;;;;;;;5097923;27;45418;-75
2022/03/06 00:52:42;;;;;;;;;11.75;11.00;;;;;;;;5096655;27;50650;-74
2022/03/06 00:55:08;;;;;;;;;14.00;11.25;;;;;;;;5097293;27;45375;-74
2022/03/06 00:57:33;;;;;;;;;12.25;11.50;;;;;;;;5096861;27;45543;-75
2022/03/06 00:59:59;;;;;;;;;14.75;12.75;;;;;;;;5097176;27;47230;-76
2022/03/06 01:02:24;;;;;;;;;16.50;13.25;;;;;;;;5097891;27;45245;-75
2022/03/06 01:04:49;;;;;;;;;14.50;11.50;;;;;;;;5098372;27;45399;-76
2022/03/06 01:07:14;;;;;;;;;16.00;13.75;;;;;;;;5098615;27;45361;-73
2022/03/06 01:09:40;;;;;;;;;15.00;13.75;;;;;;;;5097879;27;46211;-73
2022/03/06 01:12:05;;;;;;;;;13.00;11.00;;;;;;;;5077383;27;45765;-76
2022/03/06 01:14:30;;;;;;;;;12.00;12.00;;;;;;;;5097628;27;45314;-76
2022/03/06 01:16:55;;;;;;;;;12.25;11.25;;;;;;;;5096005;27;45622;-76
2022/03/06 01:19:21;;;;;;;;;13.00;11.75;;;;;;;;5096515;27;46103;-76
2022/03/06 01:21:46;;;;;;;;;13.25;10.75;;;;;;;;5095388;27;45457;-77
2022/03/06 01:24:11;;;;;;;;;12.75;12.00;;;;;;;;5096263;27;45445;-78
2022/03/06 01:26:36;;;;;;;;;11.75;10.25;;;;;;;;5100086;27;45430;-76
2022/03/06 01:29:02;;;;;;;;;11.75;11.75;;;;;;;;5100924;27;47322;-77
2022/03/06 01:31:28;;;;;;;;;12.75;9.75;;;;;;;;5095711;27;45561;-76
2022/03/06 01:33:53;;;;;;;;;10.25;9.50;;;;;;;;5096307;27;45484;-78
2022/03/06 01:36:18;;;;;;;;;14.00;11.00;;;;;;;;5096694;27;45556;-77
2022/03/06 01:38:43;;;;;;;;;10.75;9.75;;;;;;;;5109174;27;45837;-78
2022/03/06 01:41:09;;;;;;;;;11.00;10.00;;;;;;;;5097703;27;45416;-78
2022/03/06 01:43:34;;;;;;;;;13.50;11.25;;;;;;;;5088494;27;45295;-78
2022/03/06 01:45:59;;;;;;;;;13.50;10.75;;;;;;;;5088778;27;45255;-78
2022/03/06 01:48:24;;;;;;;;;12.75;11.75;;;;;;;;5096635;27;45356;-78
2022/03/06 01:50:50;;;;;;;;;10.00;10.00;;;;;;;;5096741;27;45488;-78
2022/03/06 01:53:15;;;;;;;;;14.50;11.25;;;;;;;;5097640;27;45407;-78
2022/03/06 01:55:42;;;;;;;;;11.00;11.00;;;;;;;;5099497;27;46296;-78
2022/03/06 01:58:09;;;;;;;;;13.00;11.00;;;;;;;;5078106;27;46145;-78
2022/03/06 02:00:39;;;;;;;;;10.00;8.75;;;;;;;;5096201;27;45534;-78
2022/03/06 02:03:05;;;;;;;;;11.00;11.00;;;;;;;;5080146;27;45343;-77
2022/03/06 02:05:30;;;;;;;;;10.00;10.00;;;;;;;;5097654;27;45363;-78
2022/03/06 02:07:56;;;;;;;;;14.00;11.00;;;;;;;;5095830;27;45517;-78
2022/03/06 02:10:21;;;;;;;;;11.50;10.00;;;;;;;;5096139;27;45418;-78
2022/03/06 02:12:47;;;;;;;;;12.00;11.00;;;;;;;;5097217;27;45266;-78
2022/03/06 02:15:13;;;;;;;;;9.75;9.75;;;;;;;;5095745;27;45508;-78
2022/03/06 02:17:39;;;;;;;;;13.75;10.75;;;;;;;;5096563;27;47117;-78
2022/03/06 02:20:06;;;;;;;;;15.25;9.50;;;;;;;;5097146;27;45843;-78
2022/03/06 02:22:33;;;;;;;;;9.25;8.50;;;;;;;;5096031;27;45531;-78
2022/03/06 02:25:00;;;;;;;;;10.50;8.50;;;;;;;;5095852;27;45369;-78
2022/03/06 02:27:26;;;;;;;;;13.00;10.00;;;;;;;;5096451;27;45457;-78
2022/03/06 02:29:51;;;;;;;;;12.25;11.50;;;;;;;;5095493;27;45358;-78
2022/03/06 02:32:18;;;;;;;;;9.00;9.00;;;;;;;;5082792;27;45491;-78
2022/03/06 02:34:44;;;;;;;;;9.00;9.00;;;;;;;;5094763;27;45460;-78
2022/03/06 02:37:09;;;;;;;;;12.00;8.25;;;;;;;;5095638;27;46353;-78
2022/03/06 02:39:35;;;;;;;;;9.00;9.00;;;;;;;;5095537;27;45891;-78
2022/03/06 02:42:01;;;;;;;;;10.50;8.50;;;;;;;;5096221;27;45329;-78
2022/03/06 02:44:27;;;;;;;;;12.00;9.00;;;;;;;;5095667;27;45592;-78
2022/03/06 02:46:52;;;;;;;;;10.75;9.00;;;;;;;;5102333;27;45500;-78
2022/03/06 02:49:17;;;;;;;;;11.50;9.25;;;;;;;;5100995;27;45310;-78
2022/03/06 02:51:44;;;;;;;;;10.00;10.00;;;;;;;;5095791;27;45434;-78
2022/03/06 02:54:10;;;;;;;;;12.50;12.50;;;;;;;;5096030;27;45289;-78
2022/03/06 02:56:36;;;;;;;;;11.25;10.25;;;;;;;;5096130;27;45198;-78
2022/03/06 02:59:01;;;;;;;;;9.00;9.00;;;;;;;;5095362;27;45526;-78
2022/03/06 03:01:27;;;;;;;;;8.50;8.00;;;;;;;;5095599;27;45327;-78
2022/03/06 03:03:52;;;;;;;;;10.75;9.25;;;;;;;;5104905;27;45497;-78
2022/03/06 03:06:17;;;;;;;;;12.00;10.75;;;;;;;;5094944;27;46696;-78
2022/03/06 03:08:42;;;;;;;;;8.50;8.00;;;;;;;;5095515;27;45379;-78
2022/03/06 03:11:07;;;;;;;;;9.00;7.75;;;;;;;;5096258;27;45392;-78
2022/03/06 03:13:33;;;;;;;;;9.25;9.25;;;;;;;;5073332;27;45575;-78
2022/03/06 03:15:58;;;;;;;;;11.00;10.00;;;;;;;;5091785;27;46200;-78
2022/03/06 03:18:24;;;;;;;;;10.25;10.25;;;;;;;;5082660;27;45573;-78
2022/03/06 03:20:49;;;;;;;;;9.75;9.75;;;;;;;;5095451;27;45503;-78
2022/03/06 03:23:14;;;;;;;;;10.75;10.75;;;;;;;;5096612;27;45378;-78
2022/03/06 03:25:39;;;;;;;;;10.00;9.50;;;;;;;;5086225;27;46314;-78
2022/03/06 03:28:05;;;;;;;;;10.75;9.50;;;;;;;;5087786;27;45361;-78
2022/03/06 03:30:30;;;;;;;;;7.00;7.00;;;;;;;;5107275;27;45362;-78
2022/03/06 03:32:55;;;;;;;;;9.75;9.00;;;;;;;;5096324;27;45576;-78
2022/03/06 03:35:20;;;;;;;;;8.50;8.50;;;;;;;;5096022;27;46259;-78
2022/03/06 03:37:46;;;;;;;;;10.00;9.00;;;;;;;;5096498;27;45543;-78
2022/03/06 03:40:11;;;;;;;;;8.25;8.25;;;;;;;;5098954;27;45517;-78
2022/03/06 03:42:36;;;;;;;;;10.75;9.50;;;;;;;;5096005;27;45579;-78
2022/03/06 03:45:03;;;;;;;;;10.75;8.25;;;;;;;;5095050;27;46184;-78
2022/03/06 03:47:28;;;;;;;;;9.25;7.25;;;;;;;;5095942;27;45444;-78
2022/03/06 03:49:53;;;;;;;;;10.00;8.75;;;;;;;;5094605;27;45448;-78
2022/03/06 03:52:19;;;;;;;;;11.00;9.00;;;;;;;;5098485;27;45455;-78
2022/03/06 03:54:44;;;;;;;;;11.25;9.00;;;;;;;;5096058;27;45369;-78
2022/03/06 03:57:09;;;;;;;;;10.25;9.00;;;;;;;;5098218;27;45464;-77
2022/03/06 03:59:35;;;;;;;;;9.75;8.75;;;;;;;;5099151;27;45466;-78
2022/03/06 04:02:00;;;;;;;;;10.25;10.25;;;;;;;;5099395;27;45747;-78
2022/03/06 04:04:26;;;;;;;;;8.25;8.00;;;;;;;;5102442;27;46399;-78
2022/03/06 04:06:51;;;;;;;;;8.25;7.00;;;;;;;;5105496;27;45403;-78
2022/03/06 04:09:16;;;;;;;;;12.50;10.00;;;;;;;;5084461;27;45321;-78
2022/03/06 04:11:42;;;;;;;;;9.50;9.00;;;;;;;;5098941;27;45285;-78
2022/03/06 04:14:07;;;;;;;;;8.50;7.50;;;;;;;;5099248;27;45382;-78
2022/03/06 04:16:32;;;;;;;;;8.50;7.50;;;;;;;;5097394;27;45420;-78
2022/03/06 04:18:57;;;;;;;;;8.75;8.50;;;;;;;;5095085;27;45666;-78
2022/03/06 04:21:23;;;;;;;;;9.75;7.50;;;;;;;;5085115;27;45420;-78
2022/03/06 04:23:48;;;;;;;;;9.50;8.25;;;;;;;;5097970;27;46408;-78
2022/03/06 04:26:13;;;;;;;;;9.25;8.25;;;;;;;;5100518;27;45334;-78
2022/03/06 04:28:38;;;;;;;;;8.50;8.50;;;;;;;;5098483;27;45485;-78
2022/03/06 04:31:04;;;;;;;;;7.50;7.50;;;;;;;;5093969;27;45373;-78
2022/03/06 04:33:29;;;;;;;;;7.50;7.50;;;;;;;;5085325;27;46400;-78
2022/03/06 04:35:54;;;;;;;;;10.25;10.25;;;;;;;;5097570;27;45413;-77
2022/03/06 04:38:19;;;;;;;;;9.25;8.00;;;;;;;;5098710;27;45583;-78
2022/03/06 04:40:46;;;;;;;;;9.25;7.50;;;;;;;;5097466;27;45619;-78
2022/03/06 04:43:11;;;;;;;;;11.75;9.75;;;;;;;;5097663;27;47069;-78
2022/03/06 04:45:37;;;;;;;;;11.00;9.00;;;;;;;;5097525;27;45300;-78
2022/03/06 04:48:02;;;;;;;;;10.50;10.25;;;;;;;;5098057;27;45371;-78
2022/03/06 04:50:27;;;;;;;;;11.00;8.00;;;;;;;;5094206;27;45506;-78
2022/03/06 04:52:52;;;;;;;;;9.25;8.25;;;;;;;;5097701;27;46212;-78
2022/03/06 04:55:18;;;;;;;;;10.00;9.00;;;;;;;;5097527;27;45261;-78
2022/03/06 04:57:46;;;;;;;;;9.00;9.00;;;;;;;;5098186;27;45375;-78
2022/03/06 05:00:11;;;;;;;;;10.00;8.75;;;;;;;;5097263;27;47697;-78
2022/03/06 05:02:37;;;;;;;;;8.00;8.00;;;;;;;;5081141;27;46164;-78
2022/03/06 05:05:02;;;;;;;;;10.00;8.00;;;;;;;;5098197;27;45201;-78
2022/03/06 05:07:27;;;;;;;;;10.50;9.25;;;;;;;;5097024;27;45721;-78
2022/03/06 05:09:52;;;;;;;;;11.50;10.50;;;;;;;;5096950;27;45413;-78
2022/03/06 05:12:17;;;;;;;;;10.75;9.25;;;;;;;;5097378;27;45878;-78
2022/03/06 05:14:43;;;;;;;;;8.00;8.00;;;;;;;;5097539;27;45229;-78
2022/03/06 05:17:09;;;;;;;;;10.50;7.75;;;;;;;;5098243;27;45603;-78
2022/03/06 05:19:34;;;;;;;;;9.50;8.75;;;;;;;;5097539;27;45532;-78
2022/03/06 05:21:59;;;;;;;;;8.75;7.75;;;;;;;;5097271;27;45422;-78
2022/03/06 05:24:24;;;;;;;;;11.75;9.00;;;;;;;;5096891;27;45427;-78
2022/03/06 05:26:49;;;;;;;;;9.25;7.75;;;;;;;;5085015;27;45354;-78
2022/03/06 05:29:15;;;;;;;;;9.75;9.75;;;;;;;;5098178;27;45376;-78
2022/03/06 05:31:40;;;;;;;;;8.00;8.00;;;;;;;;5097069;27;45542;-78
2022/03/06 05:34:05;;;;;;;;;7.75;7.75;;;;;;;;5097030;27;45813;-78
2022/03/06 05:36:30;;;;;;;;;10.50;10.50;;;;;;;;5097763;27;45603;-78
2022/03/06 05:38:55;;;;;;;;;12.00;9.50;;;;;;;;5096941;27;45317;-78
2022/03/06 05:41:21;;;;;;;;;8.50;8.50;;;;;;;;5098003;27;46218;-78
2022/03/06 05:43:46;;;;;;;;;7.75;7.75;;;;;;;;5096836;27;45323;-78
2022/03/06 05:46:11;;;;;;;;;7.00;7.00;;;;;;;;5100625;27;45377;-78
2022/03/06 05:48:36;;;;;;;;;9.25;7.75;;;;;;;;5108575;27;45450;-78
2022/03/06 05:51:02;;;;;;;;;8.50;8.00;;;;;;;;5092371;27;45327;-78
2022/03/06 05:53:27;;;;;;;;;10.25;9.00;;;;;;;;5096860;27;45579;-79
2022/03/06 05:55:52;;;;;;;;;11.50;9.25;;;;;;;;5096447;27;45539;-78
2022/03/06 05:58:18;;;;;;;;;10.50;6.75;;;;;;;;5096290;27;45593;-78
2022/03/06 06:00:43;;;;;;;;;10.75;7.25;;;;;;;;5095295;27;46192;-78
2022/03/06 06:03:08;;;;;;;;;11.50;10.50;;;;;;;;5080852;27;45595;-78
2022/03/06 06:05:33;;;;;;;;;10.50;8.25;;;;;;;;5098196;27;45493;-78
2022/03/06 06:07:58;;;;;;;;;10.25;10.25;;;;;;;;5098924;27;46546;-77
2022/03/06 06:10:24;;;;;;;;;10.75;9.50;;;;;;;;5096615;27;46105;-78
2022/03/06 06:12:49;;;;;;;;;9.00;9.00;;;;;;;;5099597;27;45457;-77
2022/03/06 06:15:14;;;;;;;;;10.25;9.50;;;;;;;;5096743;27;45472;-78
2022/03/06 06:17:39;;;;;;;;;7.00;7.00;;;;;;;;5097052;27;45369;-78
2022/03/06 06:20:07;;;;;;;;;9.25;8.25;;;;;;;;5084343;27;47178;-78
2022/03/06 06:22:32;;;;;;;;;8.75;7.50;;;;;;;;5092129;27;45726;-78
2022/03/06 06:24:58;;;;;;;;;8.50;8.50;;;;;;;;5096591;27;45508;-78
2022/03/06 06:27:24;;;;;;;;;9.50;9.50;;;;;;;;5096419;27;45727;-78
2022/03/06 06:29:49;;;;;;;;;9.50;9.25;;;;;;;;5096104;27;47035;-78
2022/03/06 06:32:14;;;;;;;;;10.25;10.25;;;;;;;;5097333;27;45385;-78
2022/03/06 06:34:40;;;;;;;;;9.25;8.25;;;;;;;;5097033;27;45552;-78
2022/03/06 06:37:05;;;;;;;;;9.00;8.00;;;;;;;;5095907;27;45291;-78
2022/03/06 06:39:31;;;;;;;;;10.25;9.00;;;;;;;;5092284;27;46128;-77
2022/03/06 06:41:56;;;;;;;;;9.00;9.00;;;;;;;;5094533;27;45350;-78
2022/03/06 06:44:21;;;;;;;;;8.75;8.00;;;;;;;;5096873;27;45382;-78
2022/03/06 06:46:46;;;;;;;;;10.75;9.50;;;;;;;;5095926;27;45494;-78
2022/03/06 06:49:12;;;;;;;;;10.75;10.00;;;;;;;;5095711;27;45684;-78
2022/03/06 06:51:38;;;;;;;;;7.75;7.50;;;;;;;;5095425;27;45329;-78
2022/03/06 06:54:04;;;;;;;;;10.75;10.25;;;;;;;;5095350;27;45441;-78
2022/03/06 06:56:29;;;;;;;;;10.75;8.00;;;;;;;;5096336;27;45551;-78
2022/03/06 06:58:54;;;;;;;;;14.25;10.25;;;;;;;;5099919;27;45547;-78
2022/03/06 07:01:19;;;;;;;;;10.25;8.50;;;;;;;;5100941;27;45387;-78
2022/03/06 07:03:45;;;;;;;;;12.25;9.50;;;;;;;;5072858;27;45375;-77
2022/03/06 07:06:10;;;;;;;;;7.00;7.00;;;;;;;;5095618;27;46444;-78
2022/03/06 07:08:35;;;;;;;;;9.25;9.25;;;;;;;;5095978;27;46208;-78
2022/03/06 07:11:00;;;;;;;;;8.00;7.50;;;;;;;;5096428;27;45256;-78
2022/03/06 07:13:25;;;;;;;;;10.50;8.00;;;;;;;;5095226;27;45259;-78
2022/03/06 07:15:51;;;;;;;;;9.75;8.00;;;;;;;;5095242;27;45430;-78
2022/03/06 07:18:16;;;;;;;;;10.75;9.00;;;;;;;;5094991;27;46167;-77
2022/03/06 07:20:41;;;;;;;;;11.00;8.00;;;;;;;;5096028;27;45393;-78
2022/03/06 07:23:06;;;;;;;;;10.00;9.00;;;;;;;;5096491;27;45423;-78
2022/03/06 07:25:32;;;;;;;;;9.50;8.00;;;;;;;;5095538;27;45388;-78
2022/03/06 07:27:57;;;;;;;;;12.00;10.50;;;;;;;;5095034;27;45408;-78
2022/03/06 07:30:22;;;;;;;;;8.50;8.00;;;;;;;;5098105;27;45423;-78
2022/03/06 07:32:49;;;;;;;;;8.25;8.25;;;;;;;;5082611;27;45220;-78
2022/03/06 07:35:15;;;;;;;;;8.50;8.50;;;;;;;;5097512;27;45390;-78
2022/03/06 07:37:41;;;;;;;;;9.50;7.75;;;;;;;;5098362;27;46371;-78
2022/03/06 07:40:07;;;;;;;;;11.00;8.75;;;;;;;;5098928;27;45430;-78
2022/03/06 07:42:32;;;;;;;;;10.50;9.75;;;;;;;;5117997;27;45400;-78
2022/03/06 07:44:58;;;;;;;;;9.00;8.00;;;;;;;;5080975;27;45688;-78
2022/03/06 07:47:23;;;;;;;;;8.00;8.00;;;;;;;;5099282;27;47107;-77
2022/03/06 07:49:48;;;;;;;;;10.00;9.00;;;;;;;;5097844;27;45516;-78
2022/03/06 07:52:13;;;;;;;;;10.50;8.50;;;;;;;;5098814;27;45565;-78
2022/03/06 07:54:39;;;;;;;;;10.00;10.00;;;;;;;;5098086;27;45484;-78
2022/03/06 07:57:04;;;;;;;;;12.25;9.75;;;;;;;;5098736;27;46537;-78
2022/03/06 07:59:29;;;;;;;;;10.00;10.00;;;;;;;;5099757;27;45472;-78
2022/03/06 08:01:54;;;;;;;;;13.25;10.75;;;;;;;;5086911;27;45307;-78
2022/03/06 08:04:20;;;;;;;;;9.25;7.75;;;;;;;;5092679;27;45401;-78
2022/03/06 08:06:48;;;;;;;;;11.00;9.75;;;;;;;;5098435;27;46063;-78
2022/03/06 08:09:14;;;;;;;;;12.75;10.00;;;;;;;;5098711;27;45161;-78
2022/03/06 08:11:39;;;;;;;;;9.00;9.00;;;;;;;;5098365;27;45619;-78
2022/03/06 08:14:05;;;;;;;;;9.50;7.00;;;;;;;;5098957;27;45606;-78
2022/03/06 08:16:30;;;;;;;;;9.50;8.00;;;;;;;;5097259;27;46201;-78
2022/03/06 08:18:55;;;;;;;;;7.50;7.00;;;;;;;;5080444;27;45534;-78
2022/03/06 08:21:20;;;;;;;;;8.00;8.00;;;;;;;;5099805;27;45657;-78
2022/03/06 08:23:45;;;;;;;;;14.50;10.25;;;;;;;;5100872;27;45386;-78
2022/03/06 08:26:11;;;;;;;;;9.25;9.25;;;;;;;;5101504;27;45561;-78
2022/03/06 08:28:39;;;;;;;;;8.50;7.50;;;;;;;;5105122;27;45404;-77
2022/03/06 08:31:04;;;;;;;;;10.50;7.50;;;;;;;;5095839;27;45398;-78
2022/03/06 08:33:30;;;;;;;;;8.75;8.00;;;;;;;;5086573;27;45767;-78
2022/03/06 08:35:55;;;;;;;;;9.00;9.00;;;;;;;;5097745;27;46213;-78
2022/03/06 08:38:20;;;;;;;;;8.50;7.50;;;;;;;;5098940;27;45347;-78
2022/03/06 08:40:45;;;;;;;;;10.50;8.50;;;;;;;;5096866;27;45464;-78
2022/03/06 08:43:10;;;;;;;;;7.00;7.00;;;;;;;;5101647;27;45461;-78
2022/03/06 08:45:37;;;;;;;;;6.00;6.00;;;;;;;;5097108;27;47164;-78
2022/03/06 08:48:02;;;;;;;;;11.00;9.75;;;;;;;;5097128;27;45441;-78
2022/03/06 08:50:27;;;;;;;;;9.50;9.00;;;;;;;;5111397;27;45229;-78
2022/03/06 08:52:53;;;;;;;;;13.00;9.50;;;;;;;;5097473;27;45459;-78
2022/03/06 08:55:18;;;;;;;;;10.50;8.00;;;;;;;;5096992;27;45372;-76
2022/03/06 08:57:43;;;;;;;;;7.75;7.75;;;;;;;;5098292;27;45527;-78
2022/03/06 09:00:09;;;;;;;;;8.25;8.25;;;;;;;;5098009;27;45496;-78
2022/03/06 09:02:34;;;;;;;;;8.00;8.00;;;;;;;;5098522;27;45225;-78
2022/03/06 09:04:59;;;;;;;;;7.75;6.75;;;;;;;;5097062;27;45339;-78
2022/03/06 09:07:24;;;;;;;;;11.00;9.75;;;;;;;;5097460;27;45395;-78
2022/03/06 09:09:49;;;;;;;;;9.00;9.00;;;;;;;;5097325;27;45204;-78
2022/03/06 09:12:15;;;;;;;;;6.50;6.50;;;;;;;;5097751;27;45381;-78
2022/03/06 09:14:40;;;;;;;;;9.50;8.50;;;;;;;;5096839;27;45984;-78
2022/03/06 09:17:05;;;;;;;;;10.75;7.75;;;;;;;;5098020;27;45349;-77
2022/03/06 09:19:30;;;;;;;;;11.00;8.00;;;;;;;;5097442;27;45320;-78
2022/03/06 09:21:55;;;;;;;;;12.50;10.50;;;;;;;;5096843;27;45294;-78
2022/03/06 09:24:21;;;;;;;;;8.00;8.00;;;;;;;;5097351;27;49256;-78
2022/03/06 09:26:47;;;;;;;;;9.50;9.50;;;;;;;;5084554;27;45325;-78
2022/03/06 09:29:13;;;;;;;;;9.75;8.75;;;;;;;;5098071;27;45427;-78
2022/03/06 09:31:39;;;;;;;;;8.25;8.25;;;;;;;;5088290;27;45631;-78
2022/03/06 09:34:05;;;;;;;;;10.50;9.00;;;;;;;;5089177;27;46425;-78
2022/03/06 09:36:30;;;;;;;;;11.00;8.00;;;;;;;;5105474;27;45444;-78
2022/03/06 09:38:55;;;;;;;;;8.00;7.00;;;;;;;;5097172;27;45598;-78
2022/03/06 09:41:24;;;;;;;;;7.25;7.25;;;;;;;;5083654;27;45409;-78
2022/03/06 09:43:50;;;;;;;;;11.25;10.00;;;;;;;;5095146;27;45619;-78
2022/03/06 09:46:15;;;;;;;;;10.25;10.00;;;;;;;;5096563;27;45492;-78
2022/03/06 09:48:42;;;;;;;;;11.25;9.75;;;;;;;;5097253;27;45448;-78
2022/03/06 09:51:07;;;;;;;;;8.00;8.00;;;;;;;;5096063;27;45379;-78
2022/03/06 09:53:32;;;;;;;;;8.50;7.00;;;;;;;;5097122;27;45518;-78
2022/03/06 09:55:57;;;;;;;;;10.50;9.25;;;;;;;;5096609;27;45345;-77
2022/03/06 09:58:23;;;;;;;;;11.25;9.00;;;;;;;;5096181;27;45266;-78
2022/03/06 10:00:48;;;;;;;;;9.00;8.00;;;;;;;;5094863;27;45333;-78
2022/03/06 10:03:18;;;;;;;;;8.50;8.50;;;;;;;;5081305;27;46416;-78
2022/03/06 10:05:43;;;;;;;;;10.25;8.50;;;;;;;;5096846;27;45157;-78
2022/03/06 10:08:17;;;;;;;;;9.50;9.50;;;;;;;;5097236;27;45221;-78
2022/03/06 10:10:43;;;;;;;;;11.00;10.00;;;;;;;;5096448;27;45957;-78
2022/03/06 10:13:19;;;;;;;;;12.25;10.00;;;;;;;;5096157;27;47071;-78
2022/03/06 10:15:59;;;;;;;;;10.00;10.00;;;;;;;;5095627;27;45305;-78
2022/03/06 10:18:24;;;;;;;;;9.00;9.00;;;;;;;;5096279;27;45314;-78
2022/03/06 10:20:49;;;;;;;;;11.25;9.25;;;;;;;;5096628;27;45277;-78
2022/03/06 10:23:24;;;;;;;;;12.00;10.50;;;;;;;;5097032;27;45394;-78
2022/03/06 10:26:03;;;;;;;;;8.75;8.75;;;;;;;;5100588;27;45471;-78
2022/03/06 10:28:28;;;;;;;;;9.75;8.75;;;;;;;;5095949;27;45350;-78
2022/03/06 10:30:53;;;;;;;;;8.50;8.50;;;;;;;;5098226;27;45367;-78
2022/03/06 10:33:20;;;;;;;;;8.75;8.75;;;;;;;;5096137;27;45391;-78
2022/03/06 10:35:47;;;;;;;;;11.50;10.75;;;;;;;;5095800;27;45603;-79
2022/03/06 10:38:31;;;;;;;;;12.50;11.00;;;;;;;;5097058;27;45496;-78
2022/03/06 10:41:00;;;;;;;;;9.75;9.75;;;;;;;;5098079;27;45319;-79
2022/03/06 10:43:25;;;;;;;;;11.00;9.50;;;;;;;;5099403;27;46595;-78
2022/03/06 10:45:51;;;;;;;;;11.00;10.75;;;;;;;;5095844;27;45252;-78
2022/03/06 10:48:17;;;;;;;;;13.25;11.25;;;;;;;;5096115;27;45491;-78
2022/03/06 10:50:43;;;;;;;;;12.75;10.75;;;;;;;;5095715;27;45199;-79
2022/03/06 10:53:18;;;;;;;;;11.25;11.25;;;;;;;;5095096;27;45990;-78
2022/03/06 10:55:43;;;;;;;;;11.75;11.75;;;;;;;;5095235;27;45500;-78
2022/03/06 10:58:08;;;;;;;;;12.75;11.00;;;;;;;;5095777;27;45312;-78
2022/03/06 11:00:33;;;;;;;;;13.75;13.50;;;;;;;;5106534;27;46450;-78
2022/03/06 11:03:03;;;;;;;;;11.50;11.00;;;;;;;;5094227;27;46137;-78
2022/03/06 11:05:28;;;;;;;;;12.25;11.00;;;;;;;;5096177;27;45421;-78
2022/03/06 11:07:54;;;;;;;;;13.00;13.00;;;;;;;;5098554;27;45668;-79
2022/03/06 11:10:19;;;;;;;;;9.50;8.25;;;;;;;;5095475;27;45575;-78
2022/03/06 11:12:44;;;;;;;;;14.00;13.25;;;;;;;;5095700;27;46933;-78
2022/03/06 11:15:10;;;;;;;;;10.00;10.00;;;;;;;;5095479;27;45369;-78
2022/03/06 11:17:35;;;;;;;;;16.25;13.75;;;;;;;;5096214;27;45405;-79
2022/03/06 11:20:00;;;;;;;;;14.00;12.50;;;;;;;;5094964;27;45634;-79
2022/03/06 11:22:31;;;;;;;;;13.25;11.75;;;;;;;;5095251;27;45398;-78
2022/03/06 11:24:59;;;;;;;;;13.75;12.25;;;;;;;;5094707;27;45420;-79
2022/03/06 11:27:37;;;;;;;;;12.00;10.50;;;;;;;;5098191;27;45495;-78
2022/03/06 11:30:02;;;;;;;;;13.25;10.25;;;;;;;;5095194;27;45590;-78
2022/03/06 11:32:28;;;;;;;;;11.00;10.00;;;;;;;;5091641;27;46152;-78
2022/03/06 11:35:00;;;;;;;;;12.00;12.00;;;;;;;;5094715;27;45377;-78
2022/03/06 11:37:28;;;;;;;;;12.25;11.50;;;;;;;;5096362;27;45443;-78
2022/03/06 11:39:53;;;;;;;;;13.75;11.50;;;;;;;;5094263;27;45501;-78
2022/03/06 11:42:36;;;;;;;;;15.75;12.00;;;;;;;;5096661;27;45908;-79
2022/03/06 11:45:02;;;;;;;;;10.00;9.75;;;;;;;;5095401;27;45368;-78
2022/03/06 11:47:47;;;;;;;;;14.00;9.00;;;;;;;;5096148;27;45531;-78
2022/03/06 11:50:21;;;;;;;;;11.00;11.00;;;;;;;;5095035;27;45253;-79
2022/03/06 11:52:46;;;;;;;;;13.50;11.00;;;;;;;;5094824;27;46998;-78
2022/03/06 11:55:28;;;;;;;;;11.00;10.25;;;;;;;;5094436;27;45483;-78
2022/03/06 11:57:53;;;;;;;;;11.00;9.75;;;;;;;;5094840;27;45601;-78
2022/03/06 12:00:26;;;;;;;;;11.50;9.50;;;;;;;;5102577;27;45361;-79
2022/03/06 12:02:53;;;;;;;;;13.25;9.50;;;;;;;;5094990;27;46535;-78
2022/03/06 12:05:19;;;;;;;;;12.75;10.00;;;;;;;;5095685;27;45447;-79
2022/03/06 12:07:45;;;;;;;;;13.00;11.50;;;;;;;;5094880;27;45457;-78
2022/03/06 12:10:13;;;;;;;;;11.75;10.25;;;;;;;;5094493;27;45236;-78
2022/03/06 12:12:38;;;;;;;;;13.25;12.25;;;;;;;;5096580;27;46402;-79
2022/03/06 12:15:14;;;;;;;;;13.00;13.00;;;;;;;;5077569;27;45517;-73
2022/03/06 12:17:40;;;;;;;;;12.75;12.75;;;;;;;;5095439;27;45308;-78
2022/03/06 12:20:08;;;;;;;;;12.50;12.50;;;;;;;;5099175;27;45423;-79
2022/03/06 12:22:33;;;;;;;;;12.25;11.50;;;;;;;;5102127;27;47000;-78
2022/03/06 12:25:08;;;;;;;;;12.00;10.00;;;;;;;;5106744;27;45414;-75
2022/03/06 12:27:34;;;;;;;;;11.25;11.00;;;;;;;;5103261;27;45518;-73
2022/03/06 12:30:00;;;;;;;;;13.50;13.50;;;;;;;;5099828;27;45630;-75
2022/03/06 12:32:25;;;;;;;;;13.75;12.25;;;;;;;;5099111;27;45328;-75
2022/03/06 12:35:02;;;;;;;;;31.25;23.50;;;;;;;;5097979;27;45302;-77
2022/03/06 12:37:33;;;;;;;;;26.50;22.75;;;;;;;;5097568;27;45387;-76
2022/03/06 12:40:00;;;;;;;;;30.50;26.75;;;;;;;;5098741;27;45372;-75
2022/03/06 12:42:26;;;;;;;;;25.00;24.75;;;;;;;;5106821;27;45650;-75
2022/03/06 12:45:02;;;;;;;;;27.25;22.75;;;;;;;;5098212;27;45291;-75
2022/03/06 12:47:29;;;;;;;;;23.75;21.50;;;;;;;;5080168;27;45311;-75
2022/03/06 12:49:56;;;;;;;;;20.75;19.75;;;;;;;;5097500;27;45420;-75
2022/03/06 12:52:28;;;;;;;;;18.50;18.50;;;;;;;;5097248;27;46185;-76
2022/03/06 12:54:59;;;;;;;;;21.00;21.00;;;;;;;;5098216;27;45419;-76
2022/03/06 12:57:28;;;;;;;;;16.00;14.00;;;;;;;;5097700;27;45414;-76
2022/03/06 12:59:53;;;;;;;;;16.25;16.00;;;;;;;;5096731;27;45390;-76
2022/03/06 13:02:19;;;;;;;;;16.75;15.00;;;;;;;;5097568;27;46004;-76
2022/03/06 13:04:51;;;;;;;;;18.50;16.00;;;;;;;;5096953;27;45303;-76
2022/03/06 13:07:17;;;;;;;;;17.00;14.75;;;;;;;;5094980;27;45491;-75
2022/03/06 13:09:42;;;;;;;;;17.75;13.00;;;;;;;;5096035;27;45502;-76
2022/03/06 13:12:08;;;;;;;;;14.25;13.50;;;;;;;;5095811;27;45965;-76
2022/03/06 13:14:34;;;;;;;;;14.50;13.50;;;;;;;;5097284;27;45349;-75
2022/03/06 13:17:04;;;;;;;;;15.50;13.50;;;;;;;;5096524;27;45447;-75
2022/03/06 13:19:56;;;;;;;;;12.00;11.75;;;;;;;;5094495;27;45458;-76
2022/03/06 13:22:23;;;;;;;;;14.00;9.75;;;;;;;;5092391;27;46119;-76
2022/03/06 13:24:58;;;;;;;;;16.75;15.00;;;;;;;;5096708;27;45363;-76
2022/03/06 13:27:26;;;;;;;;;11.25;10.25;;;;;;;;5095542;27;45387;-74
2022/03/06 13:30:11;;;;;;;;;13.75;13.75;;;;;;;;5102015;27;45247;-76
2022/03/06 13:32:38;;;;;;;;;14.00;13.50;;;;;;;;5108719;27;46231;-76
2022/03/06 13:35:04;;;;;;;;;13.25;12.25;;;;;;;;5096373;27;45459;-75
2022/03/06 13:37:30;;;;;;;;;12.25;12.25;;;;;;;;5100619;27;45382;-74
2022/03/06 13:39:55;;;;;;;;;13.50;12.00;;;;;;;;5096300;27;45494;-74
2022/03/06 13:42:30;;;;;;;;;17.25;13.75;;;;;;;;5095966;27;46178;-74
2022/03/06 13:44:56;;;;;;;;;16.75;14.00;;;;;;;;5096946;27;45472;-75
2022/03/06 13:47:21;;;;;;;;;17.00;15.50;;;;;;;;5097488;27;45363;-75
2022/03/06 13:49:57;;;;;;;;;12.50;11.75;;;;;;;;5096220;27;45333;-75
2022/03/06 13:52:30;;;;;;;;;10.50;10.00;;;;;;;;5098000;27;46062;-78
2022/03/06 13:55:06;;;;;;;;;12.00;11.00;;;;;;;;5118144;27;45233;-78
2022/03/06 13:57:31;;;;;;;;;14.75;12.50;;;;;;;;5120583;27;45407;-78
2022/03/06 13:59:56;;;;;;;;;14.25;12.25;;;;;;;;5104572;27;45544;-78
2022/03/06 14:02:25;;;;;;;;;15.00;13.00;;;;;;;;5105604;27;46167;-78
2022/03/06 14:04:50;;;;;;;;;18.25;16.75;;;;;;;;5101826;27;45500;-77
2022/03/06 14:07:15;;;;;;;;;14.75;13.75;;;;;;;;5099998;27;45634;-77
2022/03/06 14:09:48;;;;;;;;;11.50;10.25;;;;;;;;5096018;27;45410;-76
2022/03/06 14:12:16;;;;;;;;;10.25;10.25;;;;;;;;5109732;27;45513;-76
2022/03/06 14:14:43;;;;;;;;;15.25;9.75;;;;;;;;5096612;27;45217;-76
2022/03/06 14:17:09;;;;;;;;;11.00;11.00;;;;;;;;5105159;27;45241;-76
2022/03/06 14:19:34;;;;;;;;;10.75;10.75;;;;;;;;5099887;27;45275;-76
2022/03/06 14:22:00;;;;;;;;;13.75;12.75;;;;;;;;5095287;27;45859;-77
2022/03/06 14:24:25;;;;;;;;;12.50;11.50;;;;;;;;5095665;27;45432;-76